sensor_id;sensor_type;location;lat;lon;timestamp;temperature;humidity
22562;DHT22;11447;50.562;8.504;2023-04-20T16:45:01;9.10;77.40
22562;DHT22;11447;50.562;8.504;2023-04-20T16:47:27;9.60;75.40
22562;DHT22;11447;50.562;8.504;2023-04-20T16:49:54;9.50;75.10
22562;DHT22;11447;50.562;8.504;2023-04-20T16:52:21;9.50;75.50
22562;DHT22;11447;50.562;8.504;2023-04-20T16:54:47;9.50;75.80
22562;DHT22;11447;50.562;8.504;2023-04-20T16:57:14;9.30;74.50
22562;DHT22;11447;50.562;8.504;2023-04-20T16:59:41;9.10;76.10
22562;DHT22;11447;50.562;8.504;2023-04-20T17:02:11;8.90;77.00
22562;DHT22;11447;50.562;8.504;2023-04-20T17:04:37;8.70;76.30
22562;DHT22;11447;50.562;8.504;2023-04-20T17:07:04;8.80;76.20
22562;DHT22;11447;50.562;8.504;2023-04-20T17:09:31;8.60;76.10
22562;DHT22;11447;50.562;8.504;2023-04-20T17:11:58;8.60;76.30
22562;DHT22;11447;50.562;8.504;2023-04-20T17:14:24;8.70;75.80
22562;DHT22;11447;50.562;8.504;2023-04-20T17:16:51;8.70;76.50
22562;DHT22;11447;50.562;8.504;2023-04-20T17:19:21;8.80;75.80
22562;DHT22;11447;50.562;8.504;2023-04-20T17:21:51;8.80;75.60
22562;DHT22;11447;50.562;8.504;2023-04-20T17:24:17;8.70;76.00
22562;DHT22;11447;50.562;8.504;2023-04-20T17:26:45;8.70;76.60
22562;DHT22;11447;50.562;8.504;2023-04-20T17:29:11;8.70;76.00
22562;DHT22;11447;50.562;8.504;2023-04-20T17:31:38;8.80;76.20
22562;DHT22;11447;50.562;8.504;2023-04-20T17:34:07;8.70;76.20
22562;DHT22;11447;50.562;8.504;2023-04-20T17:36:35;8.60;76.30
22562;DHT22;11447;50.562;8.504;2023-04-20T17:39:02;8.70;76.80
22562;DHT22;11447;50.562;8.504;2023-04-20T17:41:29;8.60;77.10
22562;DHT22;11447;50.562;8.504;2023-04-20T17:43:55;8.70;77.20
22562;DHT22;11447;50.562;8.504;2023-04-20T17:46:22;8.60;77.10
22562;DHT22;11447;50.562;8.504;2023-04-20T17:48:49;8.50;77.40
22562;DHT22;11447;50.562;8.504;2023-04-20T17:51:15;8.60;77.30
22562;DHT22;11447;50.562;8.504;2023-04-20T17:53:42;8.50;77.20
22562;DHT22;11447;50.562;8.504;2023-04-20T17:56:09;8.60;77.20
22562;DHT22;11447;50.562;8.504;2023-04-20T17:58:36;8.50;77.20
22562;DHT22;11447;50.562;8.504;2023-04-20T18:01:05;8.50;77.20
22562;DHT22;11447;50.562;8.504;2023-04-20T18:03:31;8.40;76.90
22562;DHT22;11447;50.562;8.504;2023-04-20T18:06:01;8.60;76.90
22562;DHT22;11447;50.562;8.504;2023-04-20T18:08:28;8.60;76.90
22562;DHT22;11447;50.562;8.504;2023-04-20T18:10:57;8.60;76.70
22562;DHT22;11447;50.562;8.504;2023-04-20T18:13:24;8.50;77.10
22562;DHT22;11447;50.562;8.504;2023-04-20T18:15:51;8.40;77.30
22562;DHT22;11447;50.562;8.504;2023-04-20T18:18:17;8.40;77.40
22562;DHT22;11447;50.562;8.504;2023-04-20T18:20:49;8.40;77.30
22562;DHT22;11447;50.562;8.504;2023-04-20T18:23:16;8.40;77.30
22562;DHT22;11447;50.562;8.504;2023-04-20T18:25:44;8.40;77.30
22562;DHT22;11447;50.562;8.504;2023-04-20T18:28:11;8.40;77.30
22562;DHT22;11447;50.562;8.504;2023-04-20T18:30:38;8.40;77.20
22562;DHT22;11447;50.562;8.504;2023-04-20T18:33:04;8.30;77.40
22562;DHT22;11447;50.562;8.504;2023-04-20T18:35:33;8.20;77.40
22562;DHT22;11447;50.562;8.504;2023-04-20T18:38:00;8.30;77.40
22562;DHT22;11447;50.562;8.504;2023-04-20T18:40:32;8.20;77.40
22562;DHT22;11447;50.562;8.504;2023-04-20T18:42:59;8.10;77.40
22562;DHT22;11447;50.562;8.504;2023-04-20T18:45:29;8.10;77.40
22562;DHT22;11447;50.562;8.504;2023-04-20T18:47:56;8.00;77.40
22562;DHT22;11447;50.562;8.504;2023-04-20T18:50:25;8.10;77.40
22562;DHT22;11447;50.562;8.504;2023-04-20T18:52:51;8.10;77.40
22562;DHT22;11447;50.562;8.504;2023-04-20T18:55:21;8.00;77.40
22562;DHT22;11447;50.562;8.504;2023-04-20T18:57:47;8.00;77.40
22562;DHT22;11447;50.562;8.504;2023-04-20T19:00:14;7.90;77.40
22562;DHT22;11447;50.562;8.504;2023-04-20T19:02:40;8.00;77.40
22562;DHT22;11447;50.562;8.504;2023-04-20T19:05:07;8.10;77.40
22562;DHT22;11447;50.562;8.504;2023-04-20T19:07:34;7.90;77.40
22562;DHT22;11447;50.562;8.504;2023-04-20T19:10:01;7.90;77.40
22562;DHT22;11447;50.562;8.504;2023-04-20T19:12:27;7.80;77.40
22562;DHT22;11447;50.562;8.504;2023-04-20T19:14:54;8.10;77.40
22562;DHT22;11447;50.562;8.504;2023-04-20T19:17:20;8.10;77.40
22562;DHT22;11447;50.562;8.504;2023-04-20T19:19:47;8.20;77.40
22562;DHT22;11447;50.562;8.504;2023-04-20T19:22:16;8.20;77.40
22562;DHT22;11447;50.562;8.504;2023-04-20T19:24:42;8.30;77.40
22562;DHT22;11447;50.562;8.504;2023-04-20T19:27:09;8.10;77.40
22562;DHT22;11447;50.562;8.504;2023-04-20T19:29:36;8.20;77.40
22562;DHT22;11447;50.562;8.504;2023-04-20T19:32:02;8.00;77.40
22562;DHT22;11447;50.562;8.504;2023-04-20T19:34:31;8.10;77.40
22562;DHT22;11447;50.562;8.504;2023-04-20T19:36:58;8.10;77.40
22562;DHT22;11447;50.562;8.504;2023-04-20T19:39:24;8.20;77.40
22562;DHT22;11447;50.562;8.504;2023-04-20T19:41:51;8.10;77.40
22562;DHT22;11447;50.562;8.504;2023-04-20T19:44:20;8.10;77.40
22562;DHT22;11447;50.562;8.504;2023-04-20T19:46:49;7.90;77.40
22562;DHT22;11447;50.562;8.504;2023-04-20T19:49:16;8.00;77.40
22562;DHT22;11447;50.562;8.504;2023-04-20T19:51:43;7.80;77.40
22562;DHT22;11447;50.562;8.504;2023-04-20T19:54:10;7.70;77.40
22562;DHT22;11447;50.562;8.504;2023-04-20T19:56:37;7.70;77.40
22562;DHT22;11447;50.562;8.504;2023-04-20T19:59:04;7.80;77.40
22562;DHT22;11447;50.562;8.504;2023-04-20T20:01:30;7.90;77.40
22562;DHT22;11447;50.562;8.504;2023-04-20T20:03:57;7.90;77.40
22562;DHT22;11447;50.562;8.504;2023-04-20T20:06:24;8.10;77.40
22562;DHT22;11447;50.562;8.504;2023-04-20T20:08:52;8.10;77.40
22562;DHT22;11447;50.562;8.504;2023-04-20T20:11:21;8.00;77.40
22562;DHT22;11447;50.562;8.504;2023-04-20T20:13:47;8.00;77.40
22562;DHT22;11447;50.562;8.504;2023-04-20T20:16:14;7.90;77.40
22562;DHT22;11447;50.562;8.504;2023-04-20T20:18:41;8.00;77.40
22562;DHT22;11447;50.562;8.504;2023-04-20T20:21:09;8.00;77.40
22562;DHT22;11447;50.562;8.504;2023-04-20T20:23:35;7.90;77.40
22562;DHT22;11447;50.562;8.504;2023-04-20T20:26:02;7.90;77.40
22562;DHT22;11447;50.562;8.504;2023-04-20T20:28:29;7.90;77.40
22562;DHT22;11447;50.562;8.504;2023-04-20T20:30:58;7.80;77.40
22562;DHT22;11447;50.562;8.504;2023-04-20T20:33:24;7.90;77.40
22562;DHT22;11447;50.562;8.504;2023-04-20T20:41:19;8.20;77.40
22562;DHT22;11447;50.562;8.504;2023-04-20T20:43:48;8.20;77.40
22562;DHT22;11447;50.562;8.504;2023-04-20T20:46:18;8.20;77.40
22562;DHT22;11447;50.562;8.504;2023-04-20T20:48:44;8.10;77.40
22562;DHT22;11447;50.562;8.504;2023-04-20T20:51:11;8.10;77.40
22562;DHT22;11447;50.562;8.504;2023-04-20T20:53:41;8.20;77.40
22562;DHT22;11447;50.562;8.504;2023-04-20T20:56:08;8.20;77.40
22562;DHT22;11447;50.562;8.504;2023-04-20T20:58:34;8.30;77.40
22562;DHT22;11447;50.562;8.504;2023-04-20T21:01:03;8.30;77.40
22562;DHT22;11447;50.562;8.504;2023-04-20T21:03:30;8.30;77.40
22562;DHT22;11447;50.562;8.504;2023-04-20T21:05:57;8.00;77.40
22562;DHT22;11447;50.562;8.504;2023-04-20T21:08:26;8.10;77.40
22562;DHT22;11447;50.562;8.504;2023-04-20T21:10:53;8.10;77.40
22562;DHT22;11447;50.562;8.504;2023-04-20T21:13:19;8.20;77.40
22562;DHT22;11447;50.562;8.504;2023-04-20T21:15:47;8.20;77.40
22562;DHT22;11447;50.562;8.504;2023-04-20T21:18:16;8.20;77.40
22562;DHT22;11447;50.562;8.504;2023-04-20T21:20:42;8.30;77.40
22562;DHT22;11447;50.562;8.504;2023-04-20T21:23:09;8.30;77.40
22562;DHT22;11447;50.562;8.504;2023-04-20T21:25:36;8.40;77.40
22562;DHT22;11447;50.562;8.504;2023-04-20T21:28:02;8.30;77.40
22562;DHT22;11447;50.562;8.504;2023-04-20T21:30:31;8.20;77.40
22562;DHT22;11447;50.562;8.504;2023-04-20T21:32:58;8.20;77.40
22562;DHT22;11447;50.562;8.504;2023-04-20T21:35:24;8.10;77.40
22562;DHT22;11447;50.562;8.504;2023-04-20T21:37:51;8.20;77.40
22562;DHT22;11447;50.562;8.504;2023-04-20T21:40:18;8.10;77.40
22562;DHT22;11447;50.562;8.504;2023-04-20T21:42:44;8.00;77.40
22562;DHT22;11447;50.562;8.504;2023-04-20T21:45:13;8.10;77.40
22562;DHT22;11447;50.562;8.504;2023-04-20T21:47:40;8.10;77.40
22562;DHT22;11447;50.562;8.504;2023-04-20T21:50:09;8.00;77.40
22562;DHT22;11447;50.562;8.504;2023-04-20T21:52:35;8.20;77.40
22562;DHT22;11447;50.562;8.504;2023-04-20T21:55:02;8.30;77.40
22562;DHT22;11447;50.562;8.504;2023-04-20T21:57:29;8.30;77.40
22562;DHT22;11447;50.562;8.504;2023-04-20T21:59:55;8.40;77.40
22562;DHT22;11447;50.562;8.504;2023-04-20T22:02:22;8.40;77.40
22562;DHT22;11447;50.562;8.504;2023-04-20T22:04:48;8.30;77.40
22562;DHT22;11447;50.562;8.504;2023-04-20T22:07:16;8.20;77.40
22562;DHT22;11447;50.562;8.504;2023-04-20T22:09:43;8.20;77.40
22562;DHT22;11447;50.562;8.504;2023-04-20T22:12:12;8.10;77.40
22562;DHT22;11447;50.562;8.504;2023-04-20T22:14:43;8.30;77.40
22562;DHT22;11447;50.562;8.504;2023-04-20T22:17:12;8.40;77.40
22562;DHT22;11447;50.562;8.504;2023-04-20T22:19:39;8.40;77.40
22562;DHT22;11447;50.562;8.504;2023-04-20T22:22:08;8.50;77.40
22562;DHT22;11447;50.562;8.504;2023-04-20T22:24:35;8.30;77.40
22562;DHT22;11447;50.562;8.504;2023-04-20T22:27:01;8.30;77.40
22562;DHT22;11447;50.562;8.504;2023-04-20T22:29:28;8.10;77.40
22562;DHT22;11447;50.562;8.504;2023-04-20T22:31:54;8.30;77.40
22562;DHT22;11447;50.562;8.504;2023-04-20T22:34:21;8.20;77.40
22562;DHT22;11447;50.562;8.504;2023-04-20T22:36:48;8.10;77.40
22562;DHT22;11447;50.562;8.504;2023-04-20T22:39:19;8.20;77.40
22562;DHT22;11447;50.562;8.504;2023-04-20T22:41:46;8.20;77.40
22562;DHT22;11447;50.562;8.504;2023-04-20T22:44:12;8.20;77.40
22562;DHT22;11447;50.562;8.504;2023-04-20T22:46:39;8.10;77.40
22562;DHT22;11447;50.562;8.504;2023-04-20T22:49:08;8.10;77.40
22562;DHT22;11447;50.562;8.504;2023-04-20T22:51:37;8.00;77.40
22562;DHT22;11447;50.562;8.504;2023-04-20T22:54:03;8.20;77.40
22562;DHT22;11447;50.562;8.504;2023-04-20T22:56:35;8.40;77.40
22562;DHT22;11447;50.562;8.504;2023-04-20T22:59:01;8.40;77.40
22562;DHT22;11447;50.562;8.504;2023-04-20T23:01:30;8.30;77.40
22562;DHT22;11447;50.562;8.504;2023-04-20T23:03:57;8.10;77.40
22562;DHT22;11447;50.562;8.504;2023-04-20T23:06:24;8.00;77.40
